Redwood Falls Municipal Airport
KRWF : now visible

Airfield :











YOU CAN JOIN US ON...

 
LOGIN :

Register | Disclaimer

   EN    FR    IT 

 









Legend :    VFR   Marginal VFR   IFR   Intensive IFR   Very Intensive IFR
Visi :
Ceiling :
>= 8 km
>= 3000ft
5 to 8 km
1000 to 3000 ft
1500m to 5 km
500 to 1000 ft
800 to 1500m
200 to 500 ft
< 800m
< 200 ft
Symbols :   Thunderstorms  Fog  Heavy snow  Heavy precipitations  Wind > 20 kt






- Airport Elevation : 1024 ft


KRWF - Redwood Falls Municipal

CURRENT METAR :
  • 251553Z AUTO 28011KT 10SM CLR M02/M06 A3033 RMK AO2 SLP284 T10171056

EXPIRED METARs :
  • 251453Z AUTO 10SM CLR M02/M06 A3032 RMK AO2 SLP283 T10221056 53004
  • 251353Z AUTO 28006KT 10SM CLR M04/M06 A3032 RMK AO2 SLP281 T10391061
  • 251311Z AUTO 29004KT 10SM SCT014 M04/M07 A3031 RMK AO2 T10441067
  • 251253Z AUTO 10SM OVC015 M03/M06 A3031 RMK AO2 SLP279 T10331061

TAF KRWF
Valid from the 25 at 12:00 until the 26 at 12:00 UTC


251129Z 2512/2612 29007KT P6SM BKN015
FM251300 26009KT P6SM SKC
FM251800 25012KT P6SM SKC
FM252300 18012KT P6SM SKC
KZMP FIR / North America



MET'MAP, your aeronautical weather chart ! - Copyright ORBIFLY December 2007 - Disclaimer

ORBIFLY MET'MAP TEAM :

Programming & Development : Alexandra Zaïnal
Concept & original design : Baudouin d'Aumeries
Assistance for programming : Marc-Olivier Méhu
Technical & hardware support : Manuel Goepfert

Contact : metmap@orbifly.com




SOURCES & CREDITS :

   NOAA       Earth
Advisory